sensor_id;sensor_type;location;lat;lon;timestamp;temperature;humidity
13898;DHT22;7019;50.766;4.474;2023-11-19T00:01:05;12.50;99.90
13898;DHT22;7019;50.766;4.474;2023-11-19T00:03:33;12.50;99.90
13898;DHT22;7019;50.766;4.474;2023-11-19T00:06:02;12.50;99.90
13898;DHT22;7019;50.766;4.474;2023-11-19T00:08:30;12.50;99.90
13898;DHT22;7019;50.766;4.474;2023-11-19T00:10:57;12.60;99.90
13898;DHT22;7019;50.766;4.474;2023-11-19T00:13:24;12.50;99.90
13898;DHT22;7019;50.766;4.474;2023-11-19T00:15:51;12.50;99.90
13898;DHT22;7019;50.766;4.474;2023-11-19T00:18:18;12.60;99.90
13898;DHT22;7019;50.766;4.474;2023-11-19T00:20:46;12.50;99.90
13898;DHT22;7019;50.766;4.474;2023-11-19T00:23:14;12.50;99.90
13898;DHT22;7019;50.766;4.474;2023-11-19T00:25:41;12.50;99.90
13898;DHT22;7019;50.766;4.474;2023-11-19T00:28:08;12.40;99.90
13898;DHT22;7019;50.766;4.474;2023-11-19T00:30:35;12.50;99.90
13898;DHT22;7019;50.766;4.474;2023-11-19T00:33:02;12.50;99.90
13898;DHT22;7019;50.766;4.474;2023-11-19T00:35:30;12.40;99.90
13898;DHT22;7019;50.766;4.474;2023-11-19T00:37:58;12.50;99.90
13898;DHT22;7019;50.766;4.474;2023-11-19T00:40:27;12.50;99.90
13898;DHT22;7019;50.766;4.474;2023-11-19T00:42:54;12.50;99.90
13898;DHT22;7019;50.766;4.474;2023-11-19T00:45:21;12.50;99.90
13898;DHT22;7019;50.766;4.474;2023-11-19T00:47:49;12.50;99.90
13898;DHT22;7019;50.766;4.474;2023-11-19T00:50:16;12.50;99.90
13898;DHT22;7019;50.766;4.474;2023-11-19T00:52:44;12.50;99.90
13898;DHT22;7019;50.766;4.474;2023-11-19T00:55:11;12.50;99.90
13898;DHT22;7019;50.766;4.474;2023-11-19T00:57:39;12.50;99.90
13898;DHT22;7019;50.766;4.474;2023-11-19T01:00:07;12.60;99.90
13898;DHT22;7019;50.766;4.474;2023-11-19T01:02:44;12.60;99.90
13898;DHT22;7019;50.766;4.474;2023-11-19T01:05:11;12.50;99.90
13898;DHT22;7019;50.766;4.474;2023-11-19T01:07:40;12.60;99.90
13898;DHT22;7019;50.766;4.474;2023-11-19T01:10:07;12.50;99.90
13898;DHT22;7019;50.766;4.474;2023-11-19T01:12:35;12.50;99.90
13898;DHT22;7019;50.766;4.474;2023-11-19T01:15:05;12.50;99.90
13898;DHT22;7019;50.766;4.474;2023-11-19T01:17:32;12.50;99.90
13898;DHT22;7019;50.766;4.474;2023-11-19T01:20:00;12.40;99.90
13898;DHT22;7019;50.766;4.474;2023-11-19T01:22:27;12.40;99.90
13898;DHT22;7019;50.766;4.474;2023-11-19T01:24:54;12.40;99.90
13898;DHT22;7019;50.766;4.474;2023-11-19T01:27:21;12.40;99.90
13898;DHT22;7019;50.766;4.474;2023-11-19T01:29:49;12.40;99.90
13898;DHT22;7019;50.766;4.474;2023-11-19T01:32:17;12.30;99.90
13898;DHT22;7019;50.766;4.474;2023-11-19T01:34:44;12.20;99.90
13898;DHT22;7019;50.766;4.474;2023-11-19T01:37:11;12.10;99.90
13898;DHT22;7019;50.766;4.474;2023-11-19T01:39:39;12.10;99.90
13898;DHT22;7019;50.766;4.474;2023-11-19T01:42:07;12.10;99.90
13898;DHT22;7019;50.766;4.474;2023-11-19T01:44:34;12.20;99.90
13898;DHT22;7019;50.766;4.474;2023-11-19T01:47:01;12.30;99.90
13898;DHT22;7019;50.766;4.474;2023-11-19T01:49:32;12.30;99.90
13898;DHT22;7019;50.766;4.474;2023-11-19T01:51:59;12.30;99.90
13898;DHT22;7019;50.766;4.474;2023-11-19T01:54:27;12.30;99.90
13898;DHT22;7019;50.766;4.474;2023-11-19T01:56:56;12.40;99.90
13898;DHT22;7019;50.766;4.474;2023-11-19T01:59:24;12.40;99.90
13898;DHT22;7019;50.766;4.474;2023-11-19T02:01:53;12.40;99.90
13898;DHT22;7019;50.766;4.474;2023-11-19T02:04:21;12.30;99.90
13898;DHT22;7019;50.766;4.474;2023-11-19T02:06:51;12.20;99.90
13898;DHT22;7019;50.766;4.474;2023-11-19T02:09:21;12.20;99.90
13898;DHT22;7019;50.766;4.474;2023-11-19T02:11:48;12.20;99.90
13898;DHT22;7019;50.766;4.474;2023-11-19T02:14:17;12.20;99.90
13898;DHT22;7019;50.766;4.474;2023-11-19T02:16:45;12.20;99.90
13898;DHT22;7019;50.766;4.474;2023-11-19T02:19:12;12.20;99.90
13898;DHT22;7019;50.766;4.474;2023-11-19T02:21:40;12.20;99.90
13898;DHT22;7019;50.766;4.474;2023-11-19T02:24:10;12.10;99.90
13898;DHT22;7019;50.766;4.474;2023-11-19T02:26:40;12.00;99.90
13898;DHT22;7019;50.766;4.474;2023-11-19T02:29:11;12.00;99.90
13898;DHT22;7019;50.766;4.474;2023-11-19T02:31:38;12.00;99.90
13898;DHT22;7019;50.766;4.474;2023-11-19T02:34:06;12.00;99.90
13898;DHT22;7019;50.766;4.474;2023-11-19T02:36:33;12.00;99.90
13898;DHT22;7019;50.766;4.474;2023-11-19T02:39:00;12.00;99.90
13898;DHT22;7019;50.766;4.474;2023-11-19T02:41:27;12.00;99.90
13898;DHT22;7019;50.766;4.474;2023-11-19T02:43:54;11.90;99.90
13898;DHT22;7019;50.766;4.474;2023-11-19T02:46:22;11.90;99.90
13898;DHT22;7019;50.766;4.474;2023-11-19T02:48:49;12.00;99.90
13898;DHT22;7019;50.766;4.474;2023-11-19T02:51:17;12.00;99.90
13898;DHT22;7019;50.766;4.474;2023-11-19T02:53:44;12.00;99.90
13898;DHT22;7019;50.766;4.474;2023-11-19T02:56:14;12.00;99.90
13898;DHT22;7019;50.766;4.474;2023-11-19T02:58:46;12.00;99.90
13898;DHT22;7019;50.766;4.474;2023-11-19T03:01:23;12.00;99.90
13898;DHT22;7019;50.766;4.474;2023-11-19T03:03:55;12.00;99.90
13898;DHT22;7019;50.766;4.474;2023-11-19T03:06:22;12.00;99.90
13898;DHT22;7019;50.766;4.474;2023-11-19T03:08:49;11.90;99.90
13898;DHT22;7019;50.766;4.474;2023-11-19T03:11:16;11.90;99.90
13898;DHT22;7019;50.766;4.474;2023-11-19T03:13:43;11.90;99.90
13898;DHT22;7019;50.766;4.474;2023-11-19T03:16:12;11.90;99.90
13898;DHT22;7019;50.766;4.474;2023-11-19T03:18:40;11.80;99.90
13898;DHT22;7019;50.766;4.474;2023-11-19T03:21:08;11.70;99.90
13898;DHT22;7019;50.766;4.474;2023-11-19T03:23:35;11.60;99.90
13898;DHT22;7019;50.766;4.474;2023-11-19T03:26:02;11.50;99.90
13898;DHT22;7019;50.766;4.474;2023-11-19T03:28:31;11.50;99.90
13898;DHT22;7019;50.766;4.474;2023-11-19T03:30:58;11.40;99.90
13898;DHT22;7019;50.766;4.474;2023-11-19T03:33:25;11.40;99.90
13898;DHT22;7019;50.766;4.474;2023-11-19T03:35:54;11.30;99.90
13898;DHT22;7019;50.766;4.474;2023-11-19T03:38:23;11.30;99.90
13898;DHT22;7019;50.766;4.474;2023-11-19T03:40:51;11.20;99.90
13898;DHT22;7019;50.766;4.474;2023-11-19T03:43:18;11.30;99.90
13898;DHT22;7019;50.766;4.474;2023-11-19T03:45:45;11.20;99.90
13898;DHT22;7019;50.766;4.474;2023-11-19T03:48:13;11.20;99.90
13898;DHT22;7019;50.766;4.474;2023-11-19T03:50:41;11.20;99.90
13898;DHT22;7019;50.766;4.474;2023-11-19T03:53:11;11.10;99.90
13898;DHT22;7019;50.766;4.474;2023-11-19T03:55:39;11.10;99.90
13898;DHT22;7019;50.766;4.474;2023-11-19T03:58:06;11.10;99.90
13898;DHT22;7019;50.766;4.474;2023-11-19T04:00:33;11.10;99.90
13898;DHT22;7019;50.766;4.474;2023-11-19T04:03:00;11.20;99.90
13898;DHT22;7019;50.766;4.474;2023-11-19T04:05:27;11.20;99.90
13898;DHT22;7019;50.766;4.474;2023-11-19T04:07:54;11.30;99.90
13898;DHT22;7019;50.766;4.474;2023-11-19T04:10:22;11.30;99.90
13898;DHT22;7019;50.766;4.474;2023-11-19T04:12:50;11.30;99.90
13898;DHT22;7019;50.766;4.474;2023-11-19T04:15:17;11.40;99.90
13898;DHT22;7019;50.766;4.474;2023-11-19T04:17:44;11.40;99.90
13898;DHT22;7019;50.766;4.474;2023-11-19T04:20:11;11.40;99.90
13898;DHT22;7019;50.766;4.474;2023-11-19T04:22:39;11.30;99.90
13898;DHT22;7019;50.766;4.474;2023-11-19T04:25:07;11.30;99.90
13898;DHT22;7019;50.766;4.474;2023-11-19T04:27:35;11.30;99.90
13898;DHT22;7019;50.766;4.474;2023-11-19T04:30:03;11.30;99.90
13898;DHT22;7019;50.766;4.474;2023-11-19T04:32:31;11.20;99.90
13898;DHT22;7019;50.766;4.474;2023-11-19T04:34:58;11.20;99.90
13898;DHT22;7019;50.766;4.474;2023-11-19T04:37:25;11.20;99.90
13898;DHT22;7019;50.766;4.474;2023-11-19T04:39:52;11.30;99.90
13898;DHT22;7019;50.766;4.474;2023-11-19T04:42:19;11.20;99.90
13898;DHT22;7019;50.766;4.474;2023-11-19T04:44:51;11.30;99.90
13898;DHT22;7019;50.766;4.474;2023-11-19T04:47:18;11.30;99.90
13898;DHT22;7019;50.766;4.474;2023-11-19T04:49:45;11.40;99.90
13898;DHT22;7019;50.766;4.474;2023-11-19T04:52:12;11.40;99.90
13898;DHT22;7019;50.766;4.474;2023-11-19T04:54:41;11.40;99.90
13898;DHT22;7019;50.766;4.474;2023-11-19T04:57:09;11.40;99.90
13898;DHT22;7019;50.766;4.474;2023-11-19T04:59:37;11.40;99.90
13898;DHT22;7019;50.766;4.474;2023-11-19T05:02:05;11.40;99.90
13898;DHT22;7019;50.766;4.474;2023-11-19T05:04:32;11.40;99.90
13898;DHT22;7019;50.766;4.474;2023-11-19T05:06:59;11.40;99.90
13898;DHT22;7019;50.766;4.474;2023-11-19T05:09:26;11.30;99.90
13898;DHT22;7019;50.766;4.474;2023-11-19T05:11:53;11.20;99.90
13898;DHT22;7019;50.766;4.474;2023-11-19T05:14:21;11.10;99.90
13898;DHT22;7019;50.766;4.474;2023-11-19T05:16:50;11.10;99.90
13898;DHT22;7019;50.766;4.474;2023-11-19T05:19:18;11.00;99.90
13898;DHT22;7019;50.766;4.474;2023-11-19T05:21:45;11.00;99.90
13898;DHT22;7019;50.766;4.474;2023-11-19T05:24:12;11.00;99.90
13898;DHT22;7019;50.766;4.474;2023-11-19T05:26:39;10.90;99.90
13898;DHT22;7019;50.766;4.474;2023-11-19T05:29:07;10.90;99.90
13898;DHT22;7019;50.766;4.474;2023-11-19T05:31:34;10.90;99.90
13898;DHT22;7019;50.766;4.474;2023-11-19T05:34:01;10.80;99.90
13898;DHT22;7019;50.766;4.474;2023-11-19T05:36:29;10.80;99.90
13898;DHT22;7019;50.766;4.474;2023-11-19T05:38:56;10.80;99.90
13898;DHT22;7019;50.766;4.474;2023-11-19T05:41:23;10.80;99.90
13898;DHT22;7019;50.766;4.474;2023-11-19T05:43:51;10.80;99.90
13898;DHT22;7019;50.766;4.474;2023-11-19T05:46:18;10.80;99.90
13898;DHT22;7019;50.766;4.474;2023-11-19T05:48:45;10.80;99.90
13898;DHT22;7019;50.766;4.474;2023-11-19T05:51:12;10.90;99.90
13898;DHT22;7019;50.766;4.474;2023-11-19T05:53:42;11.00;99.90
13898;DHT22;7019;50.766;4.474;2023-11-19T05:56:09;11.00;99.90
13898;DHT22;7019;50.766;4.474;2023-11-19T05:58:36;11.00;99.90
13898;DHT22;7019;50.766;4.474;2023-11-19T06:01:05;11.00;99.90
13898;DHT22;7019;50.766;4.474;2023-11-19T06:03:33;10.90;99.90
13898;DHT22;7019;50.766;4.474;2023-11-19T06:06:00;10.80;99.90
13898;DHT22;7019;50.766;4.474;2023-11-19T06:08:27;10.80;99.90
13898;DHT22;7019;50.766;4.474;2023-11-19T06:10:56;10.60;99.90
13898;DHT22;7019;50.766;4.474;2023-11-19T06:13:23;10.50;99.90
13898;DHT22;7019;50.766;4.474;2023-11-19T06:15:51;10.40;99.90
13898;DHT22;7019;50.766;4.474;2023-11-19T06:18:18;10.40;99.90
13898;DHT22;7019;50.766;4.474;2023-11-19T06:20:46;10.40;99.90
13898;DHT22;7019;50.766;4.474;2023-11-19T06:23:13;10.40;99.90
13898;DHT22;7019;50.766;4.474;2023-11-19T06:25:40;10.40;99.90
13898;DHT22;7019;50.766;4.474;2023-11-19T06:28:08;10.40;99.90
13898;DHT22;7019;50.766;4.474;2023-11-19T06:30:35;10.40;99.90
13898;DHT22;7019;50.766;4.474;2023-11-19T06:33:02;10.30;99.90
13898;DHT22;7019;50.766;4.474;2023-11-19T06:35:30;10.20;99.90
13898;DHT22;7019;50.766;4.474;2023-11-19T06:38:02;10.20;99.90
13898;DHT22;7019;50.766;4.474;2023-11-19T06:40:30;10.20;99.90
13898;DHT22;7019;50.766;4.474;2023-11-19T06:42:57;10.10;99.90
13898;DHT22;7019;50.766;4.474;2023-11-19T06:45:25;10.10;99.90
13898;DHT22;7019;50.766;4.474;2023-11-19T06:47:52;10.20;99.90
13898;DHT22;7019;50.766;4.474;2023-11-19T06:50:19;10.10;99.90
13898;DHT22;7019;50.766;4.474;2023-11-19T06:52:46;10.10;99.90
13898;DHT22;7019;50.766;4.474;2023-11-19T06:55:13;10.10;99.90
13898;DHT22;7019;50.766;4.474;2023-11-19T06:57:41;10.10;99.90
13898;DHT22;7019;50.766;4.474;2023-11-19T07:00:09;10.10;99.90
13898;DHT22;7019;50.766;4.474;2023-11-19T07:02:38;10.10;99.90
13898;DHT22;7019;50.766;4.474;2023-11-19T07:05:06;10.00;99.90
13898;DHT22;7019;50.766;4.474;2023-11-19T07:07:34;10.00;99.90
13898;DHT22;7019;50.766;4.474;2023-11-19T07:10:02;10.10;99.90
13898;DHT22;7019;50.766;4.474;2023-11-19T07:12:30;10.10;99.90
13898;DHT22;7019;50.766;4.474;2023-11-19T07:14:57;10.20;99.90
13898;DHT22;7019;50.766;4.474;2023-11-19T07:17:24;10.20;99.90
13898;DHT22;7019;50.766;4.474;2023-11-19T07:19:52;10.30;99.90
13898;DHT22;7019;50.766;4.474;2023-11-19T07:22:20;10.30;99.90
13898;DHT22;7019;50.766;4.474;2023-11-19T07:24:47;10.30;99.90
13898;DHT22;7019;50.766;4.474;2023-11-19T07:27:14;10.40;99.90
13898;DHT22;7019;50.766;4.474;2023-11-19T07:29:43;10.30;99.90
13898;DHT22;7019;50.766;4.474;2023-11-19T07:32:10;10.40;99.90
13898;DHT22;7019;50.766;4.474;2023-11-19T07:34:39;10.30;99.90
13898;DHT22;7019;50.766;4.474;2023-11-19T07:37:08;10.30;99.90
13898;DHT22;7019;50.766;4.474;2023-11-19T07:39:35;10.20;99.90
13898;DHT22;7019;50.766;4.474;2023-11-19T07:42:03;10.20;99.90
13898;DHT22;7019;50.766;4.474;2023-11-19T07:44:31;10.20;99.90
13898;DHT22;7019;50.766;4.474;2023-11-19T07:46:58;10.20;99.90
13898;DHT22;7019;50.766;4.474;2023-11-19T07:49:25;10.20;99.90
13898;DHT22;7019;50.766;4.474;2023-11-19T07:51:52;10.20;99.90
13898;DHT22;7019;50.766;4.474;2023-11-19T07:54:20;10.30;99.90
13898;DHT22;7019;50.766;4.474;2023-11-19T07:56:48;10.30;99.90
13898;DHT22;7019;50.766;4.474;2023-11-19T07:59:16;10.30;99.90
13898;DHT22;7019;50.766;4.474;2023-11-19T08:01:43;10.30;99.90
13898;DHT22;7019;50.766;4.474;2023-11-19T08:04:10;10.30;99.90
13898;DHT22;7019;50.766;4.474;2023-11-19T08:06:37;10.30;99.90
13898;DHT22;7019;50.766;4.474;2023-11-19T08:09:04;10.30;99.90
13898;DHT22;7019;50.766;4.474;2023-11-19T08:11:33;10.30;99.90
13898;DHT22;7019;50.766;4.474;2023-11-19T08:14:00;10.40;99.90
13898;DHT22;7019;50.766;4.474;2023-11-19T08:16:28;10.40;99.90
13898;DHT22;7019;50.766;4.474;2023-11-19T08:18:55;10.50;99.90
13898;DHT22;7019;50.766;4.474;2023-11-19T08:21:24;10.50;99.90
13898;DHT22;7019;50.766;4.474;2023-11-19T08:23:52;10.50;99.90
13898;DHT22;7019;50.766;4.474;2023-11-19T08:26:19;10.60;99.90
13898;DHT22;7019;50.766;4.474;2023-11-19T08:28:48;10.60;99.90
13898;DHT22;7019;50.766;4.474;2023-11-19T08:31:15;10.60;99.90
13898;DHT22;7019;50.766;4.474;2023-11-19T08:33:42;10.70;99.90
13898;DHT22;7019;50.766;4.474;2023-11-19T08:36:14;10.70;99.90
13898;DHT22;7019;50.766;4.474;2023-11-19T08:38:42;10.70;99.90
13898;DHT22;7019;50.766;4.474;2023-11-19T08:41:09;10.90;99.90
13898;DHT22;7019;50.766;4.474;2023-11-19T08:43:36;11.10;99.90
13898;DHT22;7019;50.766;4.474;2023-11-19T08:46:09;11.20;99.90
13898;DHT22;7019;50.766;4.474;2023-11-19T08:48:36;11.30;99.90
13898;DHT22;7019;50.766;4.474;2023-11-19T08:51:05;11.40;99.90
13898;DHT22;7019;50.766;4.474;2023-11-19T08:53:32;11.40;99.90
13898;DHT22;7019;50.766;4.474;2023-11-19T08:55:59;11.50;99.90
13898;DHT22;7019;50.766;4.474;2023-11-19T08:58:28;11.60;99.90
13898;DHT22;7019;50.766;4.474;2023-11-19T09:00:56;11.60;99.90
13898;DHT22;7019;50.766;4.474;2023-11-19T09:03:24;11.70;99.90
13898;DHT22;7019;50.766;4.474;2023-11-19T09:05:52;11.70;99.90
13898;DHT22;7019;50.766;4.474;2023-11-19T09:08:19;11.70;99.90
13898;DHT22;7019;50.766;4.474;2023-11-19T09:10:46;11.70;99.90
13898;DHT22;7019;50.766;4.474;2023-11-19T09:13:13;11.70;99.90
13898;DHT22;7019;50.766;4.474;2023-11-19T09:15:40;11.60;99.90
13898;DHT22;7019;50.766;4.474;2023-11-19T09:18:08;11.50;99.90
13898;DHT22;7019;50.766;4.474;2023-11-19T09:20:36;11.50;99.90
13898;DHT22;7019;50.766;4.474;2023-11-19T09:23:04;11.40;99.90
13898;DHT22;7019;50.766;4.474;2023-11-19T09:25:31;11.50;99.90
13898;DHT22;7019;50.766;4.474;2023-11-19T09:27:59;11.50;99.90
13898;DHT22;7019;50.766;4.474;2023-11-19T09:30:27;11.50;99.90
13898;DHT22;7019;50.766;4.474;2023-11-19T09:32:54;11.50;99.90
13898;DHT22;7019;50.766;4.474;2023-11-19T09:35:21;11.40;99.90
13898;DHT22;7019;50.766;4.474;2023-11-19T09:37:50;11.40;99.90
13898;DHT22;7019;50.766;4.474;2023-11-19T09:40:17;11.40;99.90
13898;DHT22;7019;50.766;4.474;2023-11-19T09:42:47;11.40;99.90
13898;DHT22;7019;50.766;4.474;2023-11-19T09:45:15;11.50;99.90
13898;DHT22;7019;50.766;4.474;2023-11-19T09:47:44;11.50;99.90
13898;DHT22;7019;50.766;4.474;2023-11-19T09:50:14;11.40;99.90
13898;DHT22;7019;50.766;4.474;2023-11-19T09:52:42;11.30;99.90
13898;DHT22;7019;50.766;4.474;2023-11-19T09:55:11;11.30;99.90
13898;DHT22;7019;50.766;4.474;2023-11-19T09:57:39;11.30;99.90
13898;DHT22;7019;50.766;4.474;2023-11-19T10:00:07;11.40;99.90
13898;DHT22;7019;50.766;4.474;2023-11-19T10:02:36;11.40;99.90
13898;DHT22;7019;50.766;4.474;2023-11-19T10:05:07;11.50;99.90
13898;DHT22;7019;50.766;4.474;2023-11-19T10:07:34;11.50;99.90
13898;DHT22;7019;50.766;4.474;2023-11-19T10:10:01;11.50;99.90
13898;DHT22;7019;50.766;4.474;2023-11-19T10:12:31;11.40;99.90
13898;DHT22;7019;50.766;4.474;2023-11-19T10:14:58;11.40;99.90
13898;DHT22;7019;50.766;4.474;2023-11-19T10:17:28;11.40;99.90
13898;DHT22;7019;50.766;4.474;2023-11-19T10:19:56;11.50;99.90
13898;DHT22;7019;50.766;4.474;2023-11-19T10:22:23;11.60;99.90
13898;DHT22;7019;50.766;4.474;2023-11-19T10:24:50;11.70;99.90
13898;DHT22;7019;50.766;4.474;2023-11-19T10:27:17;11.70;99.90
13898;DHT22;7019;50.766;4.474;2023-11-19T10:29:47;11.80;99.90
13898;DHT22;7019;50.766;4.474;2023-11-19T10:32:14;11.90;99.90
13898;DHT22;7019;50.766;4.474;2023-11-19T10:34:41;11.90;99.90
13898;DHT22;7019;50.766;4.474;2023-11-19T10:37:09;11.90;99.90
13898;DHT22;7019;50.766;4.474;2023-11-19T10:39:51;12.00;99.90
13898;DHT22;7019;50.766;4.474;2023-11-19T10:42:20;12.00;99.90
13898;DHT22;7019;50.766;4.474;2023-11-19T10:44:48;12.00;99.90
13898;DHT22;7019;50.766;4.474;2023-11-19T10:47:15;12.00;99.90
13898;DHT22;7019;50.766;4.474;2023-11-19T10:49:46;12.10;99.90
13898;DHT22;7019;50.766;4.474;2023-11-19T10:52:17;12.10;99.90
13898;DHT22;7019;50.766;4.474;2023-11-19T10:54:50;12.30;99.90
13898;DHT22;7019;50.766;4.474;2023-11-19T10:57:20;12.50;99.90
13898;DHT22;7019;50.766;4.474;2023-11-19T10:59:52;12.70;99.90
13898;DHT22;7019;50.766;4.474;2023-11-19T11:02:24;12.70;99.90
13898;DHT22;7019;50.766;4.474;2023-11-19T11:04:53;12.60;99.90
13898;DHT22;7019;50.766;4.474;2023-11-19T11:07:22;12.60;99.90
13898;DHT22;7019;50.766;4.474;2023-11-19T11:09:52;12.60;99.90
13898;DHT22;7019;50.766;4.474;2023-11-19T11:12:22;12.60;99.90
13898;DHT22;7019;50.766;4.474;2023-11-19T11:14:53;12.70;99.90
13898;DHT22;7019;50.766;4.474;2023-11-19T11:17:24;12.70;99.90
13898;DHT22;7019;50.766;4.474;2023-11-19T11:19:53;12.60;99.90
13898;DHT22;7019;50.766;4.474;2023-11-19T11:22:21;12.50;99.90
13898;DHT22;7019;50.766;4.474;2023-11-19T11:25:15;12.40;99.90
13898;DHT22;7019;50.766;4.474;2023-11-19T11:27:58;12.30;99.90
13898;DHT22;7019;50.766;4.474;2023-11-19T11:30:39;12.20;99.90
13898;DHT22;7019;50.766;4.474;2023-11-19T11:33:21;12.30;99.90
13898;DHT22;7019;50.766;4.474;2023-11-19T11:35:58;12.30;99.90
13898;DHT22;7019;50.766;4.474;2023-11-19T11:38:28;12.40;99.90
13898;DHT22;7019;50.766;4.474;2023-11-19T11:41:15;12.30;99.90
13898;DHT22;7019;50.766;4.474;2023-11-19T11:43:47;12.20;99.90
13898;DHT22;7019;50.766;4.474;2023-11-19T11:49:27;12.00;99.90
13898;DHT22;7019;50.766;4.474;2023-11-19T11:51:59;12.00;99.90
13898;DHT22;7019;50.766;4.474;2023-11-19T11:54:28;12.00;99.90
13898;DHT22;7019;50.766;4.474;2023-11-19T11:57:10;12.00;99.90
13898;DHT22;7019;50.766;4.474;2023-11-19T11:59:43;12.00;99.90
13898;DHT22;7019;50.766;4.474;2023-11-19T12:02:14;12.00;99.90
13898;DHT22;7019;50.766;4.474;2023-11-19T12:04:46;12.00;99.90
13898;DHT22;7019;50.766;4.474;2023-11-19T12:07:15;12.10;99.90
13898;DHT22;7019;50.766;4.474;2023-11-19T12:09:46;12.10;99.90
13898;DHT22;7019;50.766;4.474;2023-11-19T12:12:21;12.20;99.90
13898;DHT22;7019;50.766;4.474;2023-11-19T12:15:02;12.40;99.90
13898;DHT22;7019;50.766;4.474;2023-11-19T12:17:42;12.50;99.90
13898;DHT22;7019;50.766;4.474;2023-11-19T12:20:12;12.50;99.90
13898;DHT22;7019;50.766;4.474;2023-11-19T12:22:40;12.50;99.90
13898;DHT22;7019;50.766;4.474;2023-11-19T12:25:09;12.50;99.90
13898;DHT22;7019;50.766;4.474;2023-11-19T12:27:39;12.50;99.90
13898;DHT22;7019;50.766;4.474;2023-11-19T12:30:07;12.50;99.90
13898;DHT22;7019;50.766;4.474;2023-11-19T12:32:38;12.40;99.90
13898;DHT22;7019;50.766;4.474;2023-11-19T12:35:06;12.40;99.90
13898;DHT22;7019;50.766;4.474;2023-11-19T12:37:41;12.40;99.90
13898;DHT22;7019;50.766;4.474;2023-11-19T12:40:15;12.30;99.90
13898;DHT22;7019;50.766;4.474;2023-11-19T12:42:43;12.30;99.90
13898;DHT22;7019;50.766;4.474;2023-11-19T12:45:10;12.40;99.90
13898;DHT22;7019;50.766;4.474;2023-11-19T12:47:38;12.40;99.90
13898;DHT22;7019;50.766;4.474;2023-11-19T12:50:06;12.50;99.90
13898;DHT22;7019;50.766;4.474;2023-11-19T12:52:34;12.50;99.90
13898;DHT22;7019;50.766;4.474;2023-11-19T12:55:03;12.50;99.90
13898;DHT22;7019;50.766;4.474;2023-11-19T12:57:40;12.50;99.90
13898;DHT22;7019;50.766;4.474;2023-11-19T13:00:17;12.50;99.90
13898;DHT22;7019;50.766;4.474;2023-11-19T13:02:47;12.50;99.90
13898;DHT22;7019;50.766;4.474;2023-11-19T13:05:26;12.60;99.90
13898;DHT22;7019;50.766;4.474;2023-11-19T13:08:04;12.70;99.90
13898;DHT22;7019;50.766;4.474;2023-11-19T13:10:33;12.80;99.90
13898;DHT22;7019;50.766;4.474;2023-11-19T13:13:04;12.80;99.90
13898;DHT22;7019;50.766;4.474;2023-11-19T13:15:32;12.80;99.90
13898;DHT22;7019;50.766;4.474;2023-11-19T13:17:59;12.80;99.90
13898;DHT22;7019;50.766;4.474;2023-11-19T13:20:26;12.80;99.90
13898;DHT22;7019;50.766;4.474;2023-11-19T13:22:55;12.70;99.90
13898;DHT22;7019;50.766;4.474;2023-11-19T13:25:22;12.70;99.90
13898;DHT22;7019;50.766;4.474;2023-11-19T13:27:51;12.60;99.90
13898;DHT22;7019;50.766;4.474;2023-11-19T13:30:18;12.50;99.90
13898;DHT22;7019;50.766;4.474;2023-11-19T13:32:45;12.30;99.90
13898;DHT22;7019;50.766;4.474;2023-11-19T13:35:12;12.30;99.90
13898;DHT22;7019;50.766;4.474;2023-11-19T13:37:39;12.20;99.90
13898;DHT22;7019;50.766;4.474;2023-11-19T13:40:07;12.10;99.90
13898;DHT22;7019;50.766;4.474;2023-11-19T13:42:36;12.00;99.90
13898;DHT22;7019;50.766;4.474;2023-11-19T13:45:08;11.90;99.90
13898;DHT22;7019;50.766;4.474;2023-11-19T13:47:38;11.90;99.90
13898;DHT22;7019;50.766;4.474;2023-11-19T13:50:08;12.00;99.90
13898;DHT22;7019;50.766;4.474;2023-11-19T13:52:36;12.00;99.90
13898;DHT22;7019;50.766;4.474;2023-11-19T13:55:06;12.00;99.90
13898;DHT22;7019;50.766;4.474;2023-11-19T13:57:34;12.10;99.90
13898;DHT22;7019;50.766;4.474;2023-11-19T14:00:01;12.10;99.90
13898;DHT22;7019;50.766;4.474;2023-11-19T14:02:32;12.10;99.90
13898;DHT22;7019;50.766;4.474;2023-11-19T14:04:59;12.00;99.90
13898;DHT22;7019;50.766;4.474;2023-11-19T14:07:26;12.00;99.90
13898;DHT22;7019;50.766;4.474;2023-11-19T14:09:54;12.10;99.90
13898;DHT22;7019;50.766;4.474;2023-11-19T14:12:21;12.10;99.90
13898;DHT22;7019;50.766;4.474;2023-11-19T14:14:48;12.10;99.90
13898;DHT22;7019;50.766;4.474;2023-11-19T14:17:15;12.10;99.90
13898;DHT22;7019;50.766;4.474;2023-11-19T14:19:45;12.10;99.90
13898;DHT22;7019;50.766;4.474;2023-11-19T14:22:12;12.10;99.90
13898;DHT22;7019;50.766;4.474;2023-11-19T14:24:40;12.20;99.90
13898;DHT22;7019;50.766;4.474;2023-11-19T14:27:08;12.20;99.90
13898;DHT22;7019;50.766;4.474;2023-11-19T14:29:36;12.10;99.90
13898;DHT22;7019;50.766;4.474;2023-11-19T14:32:03;12.10;99.90
13898;DHT22;7019;50.766;4.474;2023-11-19T14:34:30;12.10;99.90
13898;DHT22;7019;50.766;4.474;2023-11-19T14:36:59;12.10;99.90
13898;DHT22;7019;50.766;4.474;2023-11-19T14:39:27;12.00;99.90
13898;DHT22;7019;50.766;4.474;2023-11-19T14:41:55;12.00;99.90
13898;DHT22;7019;50.766;4.474;2023-11-19T14:44:24;12.10;99.90
13898;DHT22;7019;50.766;4.474;2023-11-19T14:46:51;12.10;99.90
13898;DHT22;7019;50.766;4.474;2023-11-19T14:49:18;12.10;99.90
13898;DHT22;7019;50.766;4.474;2023-11-19T14:51:45;12.10;99.90
13898;DHT22;7019;50.766;4.474;2023-11-19T14:54:13;12.00;99.90
13898;DHT22;7019;50.766;4.474;2023-11-19T14:56:42;12.00;99.90
13898;DHT22;7019;50.766;4.474;2023-11-19T14:59:09;11.90;99.90
13898;DHT22;7019;50.766;4.474;2023-11-19T15:01:36;11.90;99.90
13898;DHT22;7019;50.766;4.474;2023-11-19T15:04:04;11.90;99.90
13898;DHT22;7019;50.766;4.474;2023-11-19T15:06:31;11.80;99.90
13898;DHT22;7019;50.766;4.474;2023-11-19T15:08:59;11.80;99.90
13898;DHT22;7019;50.766;4.474;2023-11-19T15:11:27;11.80;99.90
13898;DHT22;7019;50.766;4.474;2023-11-19T15:13:54;11.80;99.90
13898;DHT22;7019;50.766;4.474;2023-11-19T15:16:22;11.70;99.90
13898;DHT22;7019;50.766;4.474;2023-11-19T15:18:56;11.60;99.90
13898;DHT22;7019;50.766;4.474;2023-11-19T15:21:25;11.60;99.90
13898;DHT22;7019;50.766;4.474;2023-11-19T15:23:55;11.60;99.90
13898;DHT22;7019;50.766;4.474;2023-11-19T15:26:22;11.60;99.90
13898;DHT22;7019;50.766;4.474;2023-11-19T15:28:50;11.60;99.90
13898;DHT22;7019;50.766;4.474;2023-11-19T15:31:21;11.60;99.90
13898;DHT22;7019;50.766;4.474;2023-11-19T15:33:48;11.60;99.90
13898;DHT22;7019;50.766;4.474;2023-11-19T15:36:16;11.70;99.90
13898;DHT22;7019;50.766;4.474;2023-11-19T15:38:43;11.70;99.90
13898;DHT22;7019;50.766;4.474;2023-11-19T15:41:11;11.70;99.90
13898;DHT22;7019;50.766;4.474;2023-11-19T15:43:38;11.70;99.90
13898;DHT22;7019;50.766;4.474;2023-11-19T15:46:07;11.80;99.90
13898;DHT22;7019;50.766;4.474;2023-11-19T15:48:35;11.70;99.90
13898;DHT22;7019;50.766;4.474;2023-11-19T15:51:02;11.80;99.90
13898;DHT22;7019;50.766;4.474;2023-11-19T15:53:29;11.80;99.90
13898;DHT22;7019;50.766;4.474;2023-11-19T15:55:57;11.80;99.90